Morgan, Utah
Current Conditions -  °F | °C
As of 3:13 AM on Thursday 18 Dec 2014 (Local Time) from KHIF Reporting Station
Broken Clouds Broken Clouds  
Wind Chill: 24°   Ceiling: 7000
Heat Index: 32°   Visibility: 10mi
Dew Point: 25°   Wind: 10mph
Humidity: 75%   Direction: 110°ESE
Pressure: 30.07"   Gusts: NA
Location:  41.04°N, 111.68°W
Report Text: KHIF 181013Z AUTO 11009KT 10SM BKN070 00/M04 A3007 RMK AO2
Loading
Personal Weather Stations






























Interactive Weather Map New forecast layout! Learn more

10-Day Weather Forecast

Advertisements
Track Severe Weather on mobile